Time;durP1;ratioP1;P1;durP2;ratioP2;P2;SDS_P1;SDS_P2;PMS_P1;PMS_P2;Temp;Humidity;BMP_temperature;BMP_pressure;BME280_temperature;BME280_humidity;BME280_pressure;Samples;Min_cycle;Max_cycle;Signal;HPM_P1;HPM_P2
2024/01/20 00:01:22;;;;;;;12.8;6.4;;;;;;;-0.9;77.48;99275;;;;
2024/01/20 00:11:22;;;;;;;10;5.1;;;;;;;-0.86;76.89;99273.333333333;;;;
2024/01/20 00:22:21;;;;;;;10;5.1;;;;;;;-0.86;76.93;99286.666666667;;;;
2024/01/20 00:33:22;;;;;;;10;5.1;;;;;;;-0.76;76.81;99271.666666667;;;;
2024/01/20 00:43:22;;;;;;;13.3;8.3;;;;;;;-0.74;76.05;99281.666666667;;;;
2024/01/20 00:54:22;;;;;;;13.3;8.3;;;;;;;-0.67;75.98;99293.333333333;;;;
2024/01/20 01:04:22;;;;;;;13.3;8.3;;;;;;;-0.66;75.9;99306.666666667;;;;
2024/01/20 01:15:22;;;;;;;17.4;7.3;;;;;;;-0.58;76;99320;;;;
2024/01/20 01:25:22;;;;;;;17.4;7.3;;;;;;;-0.55;75.65;99321.666666667;;;;
2024/01/20 01:36:21;;;;;;;10.9;5.5;;;;;;;-0.54;75.64;99308.333333333;;;;
2024/01/20 01:46:22;;;;;;;10.9;5.5;;;;;;;-0.51;75.53;99303.333333333;;;;
2024/01/20 01:57:22;;;;;;;10.9;5.5;;;;;;;-0.52;75.57;99300;;;;
2024/01/20 02:08:23;;;;;;;11.9;5.8;;;;;;;-0.52;75.8;99310;;;;
2024/01/20 02:19:22;;;;;;;11.9;5.8;;;;;;;-0.53;76.51;99326.666666667;;;;
2024/01/20 02:30:21;;;;;;;11.9;5.8;;;;;;;-0.54;76.1;99338.333333333;;;;
2024/01/20 02:40:22;;;;;;;14.8;5.9;;;;;;;-0.56;75.92;99328.333333333;;;;
2024/01/20 02:50:22;;;;;;;14.8;5.9;;;;;;;-0.67;76.23;99331.666666667;;;;
2024/01/20 03:00:22;;;;;;;14.8;5.9;;;;;;;-0.97;76.08;99330;;;;
2024/01/20 03:11:21;;;;;;;11.8;5.2;;;;;;;-1.31;76.76;99335;;;;
2024/01/20 03:21:22;;;;;;;11.8;5.2;;;;;;;-1.5;77.39;99351.666666667;;;;
2024/01/20 03:32:22;;;;;;;11.8;5.2;;;;;;;-1.66;77.09;99353.333333333;;;;
2024/01/20 03:43:22;;;;;;;9;4.3;;;;;;;-1.86;77.42;99348.333333333;;;;
2024/01/20 03:53:22;;;;;;;9;4.3;;;;;;;-2.01;77.63;99338.333333333;;;;
2024/01/20 04:04:22;;;;;;;9;4.3;;;;;;;-2.27;77.91;99343.333333333;;;;
2024/01/20 04:14:22;;;;;;;14.1;5.1;;;;;;;-2.5;78.19;99348.333333333;;;;
2024/01/20 04:25:22;;;;;;;14.1;5.1;;;;;;;-2.69;78.82;99360;;;;
2024/01/20 04:35:22;;;;;;;14.1;5.1;;;;;;;-2.86;79.91;99358.333333333;;;;
2024/01/20 04:46:22;;;;;;;4.5;2.6;;;;;;;-2.97;79.71;99368.333333333;;;;
2024/01/20 04:56:22;;;;;;;4.5;2.6;;;;;;;-3.09;81.26;99375;;;;
2024/01/20 05:07:22;;;;;;;7;3.4;;;;;;;-3.06;81.89;99376.666666667;;;;
2024/01/20 05:18:22;;;;;;;7;3.4;;;;;;;-3.07;81.31;99388.333333333;;;;
2024/01/20 05:29:22;;;;;;;7;3.4;;;;;;;-3.28;81.16;99390;;;;
2024/01/20 05:40:22;;;;;;;7.4;3.7;;;;;;;-3.53;81.02;99400;;;;
2024/01/20 05:51:22;;;;;;;7.4;3.7;;;;;;;-3.75;81.71;99406.666666667;;;;
2024/01/20 06:01:22;;;;;;;7.4;3.7;;;;;;;-3.8;82.46;99435;;;;
2024/01/20 06:12:22;;;;;;;8.7;3.9;;;;;;;-3.87;82.68;99445;;;;
2024/01/20 06:22:22;;;;;;;8.7;3.9;;;;;;;-3.97;82.45;99445;;;;
2024/01/20 06:33:22;;;;;;;8.7;3.9;;;;;;;-4.01;83.34;99460;;;;
2024/01/20 06:44:22;;;;;;;8.1;4.6;;;;;;;-4.03;83.21;99481.666666667;;;;
2024/01/20 06:55:22;;;;;;;8.1;4.6;;;;;;;-3.77;83.43;99483.333333333;;;;
2024/01/20 07:05:22;;;;;;;9.6;5.3;;;;;;;-3.62;83.04;99496.666666667;;;;
2024/01/20 07:15:22;;;;;;;9.6;5.3;;;;;;;-3.37;82.32;99498.333333333;;;;
2024/01/20 07:26:22;;;;;;;9.6;5.3;;;;;;;-3;81.17;99511.666666667;;;;
2024/01/20 07:37:22;;;;;;;13.2;6;;;;;;;-2.32;80.36;99518.333333333;;;;
2024/01/20 07:48:22;;;;;;;13.2;6;;;;;;;-1.67;77.77;99518.333333333;;;;
2024/01/20 07:59:22;;;;;;;13.2;6;;;;;;;-1.16;75.79;99518.333333333;;;;
2024/01/20 08:10:22;;;;;;;11.5;6.6;;;;;;;-0.73;74.14;99531.666666667;;;;
2024/01/20 08:21:22;;;;;;;11.5;6.6;;;;;;;-0.3;72.68;99548.333333333;;;;
2024/01/20 08:32:22;;;;;;;11.5;6.6;;;;;;;0.01;71.88;99548.333333333;;;;
2024/01/20 08:42:22;;;;;;;10.9;5.9;;;;;;;0.13;70.5;99546.666666667;;;;
2024/01/20 08:53:22;;;;;;;10.9;5.9;;;;;;;0.37;69.44;99561.666666667;;;;
2024/01/20 09:04:22;;;;;;;10.9;5.9;;;;;;;0.68;68.51;99570;;;;
2024/01/20 09:14:22;;;;;;;13.6;6.8;;;;;;;0.76;66.84;99568.333333333;;;;
2024/01/20 09:24:22;;;;;;;13.6;6.8;;;;;;;1.21;66.31;99588.333333333;;;;
2024/01/20 09:35:22;;;;;;;11;5;;;;;;;1.53;65.58;99593.333333333;;;;
2024/01/20 09:46:22;;;;;;;11;5;;;;;;;1.76;66.43;99588.333333333;;;;
2024/01/20 09:56:22;;;;;;;11;5;;;;;;;2.2;64.08;99596.666666667;;;;
2024/01/20 10:07:22;;;;;;;14.4;8;;;;;;;2.32;62.47;99591.666666667;;;;
2024/01/20 10:17:22;;;;;;;14.4;8;;;;;;;2.5;63.29;99586.666666667;;;;
2024/01/20 10:28:22;;;;;;;14.4;8;;;;;;;2.57;61.07;99586.666666667;;;;
2024/01/20 10:38:22;;;;;;;10.5;5.3;;;;;;;2.65;61.79;99566.666666667;;;;
2024/01/20 10:49:22;;;;;;;10.5;5.3;;;;;;;3.21;60.44;99571.666666667;;;;
2024/01/20 11:00:22;;;;;;;10.5;5.3;;;;;;;3.28;59.92;99575;;;;
2024/01/20 11:10:22;;;;;;;10.1;5.1;;;;;;;3.71;61;99561.666666667;;;;
2024/01/20 11:20:22;;;;;;;10.1;5.1;;;;;;;3.48;59.75;99555;;;;
2024/01/20 11:31:22;;;;;;;10.1;5.1;;;;;;;3.35;61.39;99543.333333333;;;;
2024/01/20 11:41:22;;;;;;;7;3.4;;;;;;;3.42;60.47;99516.666666667;;;;
2024/01/20 11:51:22;;;;;;;7;3.4;;;;;;;3.49;58.99;99506.666666667;;;;
2024/01/20 12:02:22;;;;;;;7;3.4;;;;;;;3.74;57.38;99501.666666667;;;;
2024/01/20 12:12:22;;;;;;;6.1;2.9;;;;;;;3.74;57.55;99490;;;;
2024/01/20 12:22:22;;;;;;;6.1;2.9;;;;;;;3.69;57.82;99496.666666667;;;;
2024/01/20 12:32:22;;;;;;;6.1;2.9;;;;;;;3.45;59.18;99496.666666667;;;;
2024/01/20 12:43:22;;;;;;;10.1;5;;;;;;;3.33;59.5;99496.666666667;;;;
2024/01/20 12:53:22;;;;;;;10.1;5;;;;;;;3.28;60.4;99516.666666667;;;;
2024/01/20 13:04:22;;;;;;;12.7;6.2;;;;;;;3.19;60.32;99525;;;;
2024/01/20 13:14:22;;;;;;;12.7;6.2;;;;;;;2.87;61.92;99518.333333333;;;;
2024/01/20 13:25:22;;;;;;;12.7;6.2;;;;;;;2.83;61.94;99521.666666667;;;;
2024/01/20 13:35:22;;;;;;;12.9;7;;;;;;;2.85;62.63;99520;;;;
2024/01/20 13:45:22;;;;;;;12.9;7;;;;;;;2.81;63.06;99515;;;;
2024/01/20 13:56:25;;;;;;;12.9;7;;;;;;;2.64;63.04;99516.666666667;;;;
2024/01/20 14:06:22;;;;;;;13.1;7.8;;;;;;;2.18;64.91;99523.333333333;;;;
2024/01/20 14:17:22;;;;;;;13.1;7.8;;;;;;;1.79;65.64;99525;;;;
2024/01/20 14:28:22;;;;;;;13.1;7.8;;;;;;;1.46;67.3;99535;;;;
2024/01/20 14:38:22;;;;;;;12.5;6.8;;;;;;;1.18;67.73;99536.666666667;;;;
2024/01/20 14:48:22;;;;;;;12.5;6.8;;;;;;;0.88;68.72;99548.333333333;;;;
2024/01/20 14:59:22;;;;;;;12.5;6.8;;;;;;;0.55;69.2;99558.333333333;;;;
2024/01/20 15:10:22;;;;;;;11.9;6.6;;;;;;;0.29;70.02;99583.333333333;;;;
2024/01/20 15:20:22;;;;;;;11.9;6.6;;;;;;;0.08;70.59;99593.333333333;;;;
2024/01/20 15:30:22;;;;;;;11.9;6.6;;;;;;;-0.25;71.44;99588.333333333;;;;
2024/01/20 15:40:22;;;;;;;17;9.4;;;;;;;-0.43;71.92;99603.333333333;;;;
2024/01/20 15:51:22;;;;;;;17;9.4;;;;;;;-0.63;72.87;99618.333333333;;;;
2024/01/20 16:02:22;;;;;;;17;9.4;;;;;;;-0.77;73.19;99638.333333333;;;;
2024/01/20 16:12:22;;;;;;;18.8;9.7;;;;;;;-0.91;73.3;99636.666666667;;;;
2024/01/20 16:23:22;;;;;;;18.8;9.7;;;;;;;-1.11;73.02;99628.333333333;;;;
2024/01/20 16:34:22;;;;;;;18.4;10;;;;;;;-0.98;71.26;99638.333333333;;;;
2024/01/20 16:44:22;;;;;;;18.4;10;;;;;;;-1.02;70.9;99650;;;;
2024/01/20 16:55:22;;;;;;;18.4;10;;;;;;;-1.09;71.14;99656.666666667;;;;
2024/01/20 17:05:24;;;;;;;13.6;8.8;;;;;;;-1.22;70.99;99670;;;;
2024/01/20 17:16:22;;;;;;;13.6;8.8;;;;;;;-1.31;71.34;99691.666666667;;;;
2024/01/20 17:27:22;;;;;;;13.6;8.8;;;;;;;-1.3;70.97;99706.666666667;;;;
2024/01/20 17:37:22;;;;;;;15.6;8.4;;;;;;;-1.15;69.33;99711.666666667;;;;
2024/01/20 17:48:22;;;;;;;15.6;8.4;;;;;;;-1.02;68.15;99716.666666667;;;;
2024/01/20 17:58:22;;;;;;;15.6;8.4;;;;;;;-1;67.87;99736.666666667;;;;
2024/01/20 18:08:24;;;;;;;12.3;5.9;;;;;;;-0.95;66.71;99751.666666667;;;;
2024/01/20 18:19:22;;;;;;;12.3;5.9;;;;;;;-0.82;66.46;99775;;;;
2024/01/20 18:29:22;;;;;;;12.3;5.9;;;;;;;-0.76;66.02;99783.333333333;;;;
2024/01/20 18:39:22;;;;;;;10.2;7.6;;;;;;;-0.68;65.85;99790;;;;
2024/01/20 18:50:22;;;;;;;10.2;7.6;;;;;;;-0.46;65.34;99801.666666667;;;;
2024/01/20 19:00:23;;;;;;;10.2;7.6;;;;;;;-0.22;64.72;99805;;;;
2024/01/20 19:11:23;;;;;;;11.1;5.3;;;;;;;-0.1;64.54;99830;;;;
2024/01/20 19:21:22;;;;;;;11.1;5.3;;;;;;;-0.03;64.15;99846.666666667;;;;
2024/01/20 19:31:22;;;;;;;11.1;5.3;;;;;;;-0.02;64.79;99841.666666667;;;;
2024/01/20 19:41:22;;;;;;;10.6;5.7;;;;;;;0;64.53;99846.666666667;;;;
2024/01/20 19:51:22;;;;;;;10.6;5.7;;;;;;;0.05;65.32;99860;;;;
2024/01/20 20:02:22;;;;;;;10.6;5.7;;;;;;;0.13;64.77;99871.666666667;;;;
2024/01/20 20:12:22;;;;;;;14;7.6;;;;;;;0.27;64.35;99883.333333333;;;;
2024/01/20 20:23:22;;;;;;;14;7.6;;;;;;;0.4;64.21;99876.666666667;;;;
2024/01/20 20:34:22;;;;;;;9.9;5.4;;;;;;;0.48;63.83;99886.666666667;;;;
2024/01/20 20:44:22;;;;;;;9.9;5.4;;;;;;;0.56;63.98;99898.333333333;;;;
2024/01/20 20:54:22;;;;;;;9.9;5.4;;;;;;;0.57;64.28;99906.666666667;;;;
2024/01/20 21:04:22;;;;;;;11.9;6.3;;;;;;;0.54;64.62;99905;;;;
2024/01/20 21:15:22;;;;;;;11.9;6.3;;;;;;;0.49;65.34;99900;;;;
2024/01/20 21:25:22;;;;;;;11.9;6.3;;;;;;;0.54;65.9;99921.666666667;;;;
2024/01/20 21:36:22;;;;;;;15.3;6.1;;;;;;;0.57;65.77;99921.666666667;;;;
2024/01/20 21:46:22;;;;;;;15.3;6.1;;;;;;;0.59;66.42;99935;;;;
2024/01/20 21:57:22;;;;;;;15.3;6.1;;;;;;;0.65;66.9;99948.333333333;;;;
2024/01/20 22:08:22;;;;;;;9.6;5;;;;;;;0.72;66.78;99948.333333333;;;;
2024/01/20 22:18:22;;;;;;;9.6;5;;;;;;;0.75;66.94;99955;;;;
2024/01/20 22:29:24;;;;;;;9.6;5;;;;;;;0.75;67.12;99958.333333333;;;;
2024/01/20 22:40:23;;;;;;;10.4;4.7;;;;;;;0.79;67.5;99961.666666667;;;;
2024/01/20 22:50:22;;;;;;;10.4;4.7;;;;;;;0.76;67.15;99978.333333333;;;;
2024/01/20 23:01:22;;;;;;;10.4;4.7;;;;;;;0.84;67.47;99981.666666667;;;;
2024/01/20 23:11:22;;;;;;;11.3;4.6;;;;;;;0.82;67.69;99980;;;;
2024/01/20 23:22:22;;;;;;;11.3;4.6;;;;;;;0.77;68.81;99980;;;;
2024/01/20 23:33:22;;;;;;;13.1;7.7;;;;;;;0.77;69.8;99980;;;;
2024/01/20 23:43:22;;;;;;;13.1;7.7;;;;;;;0.64;71.21;99995;;;;
2024/01/20 23:54:22;;;;;;;13.1;7.7;;;;;;;0.63;71.89;100008.33333333;;;;
